KAL8315 ZSPD-PGUM
Flight info
| Callsign | KAL8315 |
|---|---|
| Flight time | N/A |
| Altitude | 31000 |
| Route | LAM81D/17L LAMEN A593 SADLI Y590 BEDAR Y591 ISPIT Z41 AGIKA G339 SHAWS |
| Aircraft | B77L/H-SDE1E2E3FGHIJ2J3J4J5M1RWXY/LB1D1 |
Departure
| Time | N/A |
|---|---|
| Airport | Shanghai Pudong International Airport (ZSPD) |
Arrival
| Time | 2026-04-25 03:06 |
|---|---|
| Airport | Antonio B. Won Pat International Airport (PGUM) |
| Time | Latitude | Longitude | Altitude | Speed | Heading |
|---|---|---|---|---|---|
| 2026-04-25 02:49 | 15.05466 | 143.32525 | 34970 ft | 508 kts | 139° |
| 2026-04-25 02:49 | 15.02792 | 143.34905 | 34674 ft | 508 kts | 139° |
| 2026-04-25 02:50 | 15.00115 | 143.37288 | 34140 ft | 506 kts | 139° |
| 2026-04-25 02:50 | 14.97455 | 143.39656 | 33588 ft | 502 kts | 140° |
| 2026-04-25 02:50 | 14.94824 | 143.41996 | 33079 ft | 497 kts | 140° |
| 2026-04-25 02:50 | 14.85966 | 143.49869 | 31428 ft | 482 kts | 140° |
| 2026-04-25 02:51 | 14.72370 | 143.61937 | 28734 ft | 461 kts | 141° |
| 2026-04-25 02:51 | 14.59666 | 143.71306 | 26281 ft | 444 kts | 146° |
| 2026-04-25 02:51 | 14.40330 | 143.85479 | 22813 ft | 420 kts | 144° |
| 2026-04-25 02:51 | 14.22300 | 143.98708 | 19351 ft | 401 kts | 143° |
| 2026-04-25 02:52 | 14.20023 | 144.00378 | 18845 ft | 401 kts | 143° |
| 2026-04-25 02:52 | 14.17752 | 144.02045 | 18384 ft | 400 kts | 143° |
| 2026-04-25 02:52 | 14.15490 | 144.03703 | 17886 ft | 398 kts | 143° |
| 2026-04-25 02:52 | 14.13239 | 144.05352 | 17442 ft | 395 kts | 144° |
| 2026-04-25 02:53 | 14.11006 | 144.06987 | 16983 ft | 392 kts | 144° |
| 2026-04-25 02:53 | 14.08793 | 144.08606 | 16564 ft | 389 kts | 144° |
| 2026-04-25 02:53 | 14.06592 | 144.10217 | 16122 ft | 387 kts | 144° |
| 2026-04-25 02:53 | 14.02981 | 144.12861 | 15410 ft | 382 kts | 145° |
| 2026-04-25 02:54 | 13.99622 | 144.15317 | 14779 ft | 378 kts | 145° |
| 2026-04-25 02:54 | 13.85578 | 144.25543 | 11971 ft | 359 kts | 144° |
| 2026-04-25 02:54 | 13.83558 | 144.27016 | 11730 ft | 351 kts | 144° |
| 2026-04-25 02:54 | 13.81638 | 144.28420 | 11567 ft | 326 kts | 144° |
| 2026-04-25 02:55 | 13.79831 | 144.29743 | 11091 ft | 316 kts | 144° |
| 2026-04-25 02:55 | 13.76962 | 144.31840 | 10383 ft | 317 kts | 143° |
| 2026-04-25 02:55 | 13.71844 | 144.35573 | 9527 ft | 302 kts | 143° |
| 2026-04-25 02:55 | 13.69404 | 144.37351 | 9007 ft | 300 kts | 143° |
| 2026-04-25 02:56 | 13.67710 | 144.38585 | 8848 ft | 296 kts | 142° |
| 2026-04-25 02:56 | 13.66032 | 144.39807 | 8621 ft | 297 kts | 142° |
| 2026-04-25 02:56 | 13.64349 | 144.41033 | 8468 ft | 295 kts | 142° |
| 2026-04-25 02:56 | 13.62679 | 144.42248 | 8299 ft | 292 kts | 143° |
| 2026-04-25 02:57 | 13.61025 | 144.43452 | 8138 ft | 290 kts | 142° |
| 2026-04-25 02:57 | 13.59394 | 144.44638 | 7869 ft | 286 kts | 142° |
| 2026-04-25 02:57 | 13.57781 | 144.45811 | 7567 ft | 278 kts | 142° |
| 2026-04-25 02:57 | 13.56237 | 144.46933 | 7256 ft | 268 kts | 143° |
| 2026-04-25 02:58 | 13.54737 | 144.48024 | 7033 ft | 260 kts | 142° |
| 2026-04-25 02:58 | 13.53277 | 144.49086 | 6731 ft | 255 kts | 143° |
| 2026-04-25 02:58 | 13.51831 | 144.50137 | 6423 ft | 252 kts | 142° |
| 2026-04-25 02:58 | 13.50412 | 144.51170 | 6060 ft | 249 kts | 141° |
| 2026-04-25 02:59 | 13.48996 | 144.52201 | 5645 ft | 247 kts | 142° |
| 2026-04-25 02:59 | 13.47609 | 144.53209 | 5346 ft | 241 kts | 142° |
| 2026-04-25 02:59 | 13.46264 | 144.54186 | 5106 ft | 232 kts | 142° |
| 2026-04-25 02:59 | 13.44965 | 144.55129 | 4820 ft | 226 kts | 142° |
| 2026-04-25 03:00 | 13.43716 | 144.56035 | 4549 ft | 219 kts | 141° |
| 2026-04-25 03:00 | 13.42482 | 144.56932 | 4305 ft | 208 kts | 142° |
| 2026-04-25 03:00 | 13.41344 | 144.57776 | 4035 ft | 193 kts | 134° |
| 2026-04-25 03:00 | 13.40650 | 144.58829 | 3906 ft | 171 kts | 108° |
| 2026-04-25 03:01 | 13.40333 | 144.59996 | 3871 ft | 174 kts | 103° |
| 2026-04-25 03:01 | 13.40130 | 144.61209 | 3673 ft | 171 kts | 78° |
| 2026-04-25 03:01 | 13.40597 | 144.62308 | 3549 ft | 171 kts | 62° |
| 2026-04-25 03:01 | 13.41091 | 144.63414 | 3292 ft | 167 kts | 65° |
| 2026-04-25 03:02 | 13.41565 | 144.64498 | 3113 ft | 168 kts | 64° |
| 2026-04-25 03:02 | 13.42050 | 144.65574 | 2873 ft | 165 kts | 64° |
| 2026-04-25 03:02 | 13.42541 | 144.66653 | 2679 ft | 166 kts | 64° |
| 2026-04-25 03:02 | 13.43026 | 144.67720 | 2467 ft | 161 kts | 63° |
| 2026-04-25 03:03 | 13.43490 | 144.68738 | 2272 ft | 152 kts | 62° |
| 2026-04-25 03:03 | 13.43949 | 144.69747 | 2068 ft | 154 kts | 63° |
| 2026-04-25 03:03 | 13.44383 | 144.70701 | 1876 ft | 142 kts | 63° |
| 2026-04-25 03:03 | 13.44806 | 144.71624 | 1687 ft | 143 kts | 64° |
| 2026-04-25 03:04 | 13.45236 | 144.72573 | 1496 ft | 149 kts | 64° |
| 2026-04-25 03:04 | 13.45651 | 144.73513 | 1313 ft | 143 kts | 62° |
| 2026-04-25 03:04 | 13.46081 | 144.74427 | 1103 ft | 144 kts | 64° |
| 2026-04-25 03:05 | 13.46960 | 144.76359 | 731 ft | 150 kts | 65° |
| 2026-04-25 03:05 | 13.47403 | 144.77337 | 516 ft | 152 kts | 66° |
| 2026-04-25 03:05 | 13.47847 | 144.78302 | 315 ft | 153 kts | 66° |
| 2026-04-25 03:05 | 13.48280 | 144.79252 | 263 ft | 135 kts | 65° |
| 2026-04-25 03:06 | 13.48607 | 144.79961 | 279 ft | 83 kts | 65° |
| 2026-04-25 03:06 | 13.48762 | 144.80301 | 293 ft | 31 kts | 64° |
| 2026-04-25 03:06 | 13.48807 | 144.80394 | 299 ft | 9 kts | 56° |
| 2026-04-25 03:06 | 13.48863 | 144.80398 | 298 ft | 9 kts | 334° |
| 2026-04-25 03:07 | 13.48918 | 144.80364 | 297 ft | 8 kts | 305° |
| 2026-04-25 03:07 | 13.48907 | 144.80323 | 296 ft | 3 kts | 236° |
| 2026-04-25 03:07 | 13.48905 | 144.80321 | 296 ft | 0 kts | 236° |
| 2026-04-25 03:07 | 13.48902 | 144.80316 | 296 ft | 2 kts | 236° |
| 2026-04-25 03:08 | 13.48891 | 144.80299 | 294 ft | 4 kts | 236° |
| 2026-04-25 03:08 | 13.48892 | 144.80262 | 292 ft | 8 kts | 302° |
| 2026-04-25 03:08 | 13.48935 | 144.80234 | 288 ft | 7 kts | 332° |
| 2026-04-25 03:08 | 13.48967 | 144.80217 | 288 ft | 3 kts | 333° |
| 2026-04-25 03:09 | 13.48971 | 144.80215 | 288 ft | 0 kts | 332° |
| 2026-04-25 03:09 | 13.45831 | 144.73892 | 1238 ft | 142 kts | 62° |
| 2026-04-25 03:09 | 13.46262 | 144.74820 | 1068 ft | 149 kts | 64° |
| 2026-04-25 03:09 | 13.47564 | 144.77678 | 455 ft | 150 kts | 67° |
| 2026-04-25 03:10 | 13.48013 | 144.78658 | 272 ft | 151 kts | 67° |
| 2026-04-25 03:10 | 13.48291 | 144.79275 | 264 ft | 134 kts | 65° |
| 2026-04-25 03:10 | 13.48680 | 144.80123 | 287 ft | 58 kts | 65° |
| 2026-04-25 03:10 | 13.45815 | 144.73859 | 1257 ft | 142 kts | 62° |
| 2026-04-25 03:11 | 13.46247 | 144.74788 | 1076 ft | 148 kts | 64° |
| 2026-04-25 03:11 | 13.46545 | 144.75446 | 903 ft | 150 kts | 67° |
| 2026-04-25 03:11 | 13.47128 | 144.76729 | 658 ft | 150 kts | 68° |
| 2026-04-25 03:11 | 13.47424 | 144.77381 | 504 ft | 151 kts | 66° |
| 2026-04-25 03:12 | 13.47872 | 144.78356 | 307 ft | 153 kts | 67° |
| 2026-04-25 03:12 | 13.48303 | 144.79300 | 264 ft | 133 kts | 65° |
| 2026-04-25 03:12 | 13.48620 | 144.79991 | 281 ft | 80 kts | 65° |
| 2026-04-25 03:12 | 13.48767 | 144.80312 | 298 ft | 28 kts | 64° |
| 2026-04-25 03:13 | 13.47861 | 144.78330 | 312 ft | 153 kts | 66° |
| 2026-04-25 03:13 | 13.48293 | 144.79280 | 264 ft | 134 kts | 65° |
| 2026-04-25 03:13 | 13.48614 | 144.79978 | 280 ft | 82 kts | 65° |
| 2026-04-25 03:13 | 13.48764 | 144.80307 | 297 ft | 29 kts | 64° |
| 2026-04-25 03:14 | 13.48808 | 144.80396 | 299 ft | 8 kts | 54° |
| 2026-04-25 03:14 | 13.48865 | 144.80398 | 298 ft | 9 kts | 334° |
| 2026-04-25 03:14 | 13.48919 | 144.80363 | 297 ft | 7 kts | 303° |
| 2026-04-25 03:14 | 13.48907 | 144.80323 | 296 ft | 2 kts | 236° |
| 2026-04-25 03:15 | 13.48889 | 144.80266 | 293 ft | 7 kts | 294° |
| 2026-04-25 03:15 | 13.48932 | 144.80235 | 288 ft | 6 kts | 332° |
| 2026-04-25 03:15 | 13.48971 | 144.80215 | 288 ft | 0 kts | 332° |